createdAt,value
2023-02-09T06:46:29.203Z,6.80
2023-02-09T06:47:30.145Z,6.80
2023-02-09T06:48:30.044Z,3.40
2023-02-09T06:49:30.172Z,3.29
2023-02-09T06:50:30.005Z,3.70
2023-02-09T06:51:30.055Z,5.00
2023-02-09T06:52:29.952Z,3.79
2023-02-09T06:53:30.010Z,4.90
2023-02-09T06:54:29.913Z,5.69
2023-02-09T06:55:29.950Z,3.59
2023-02-09T06:56:29.875Z,4.50
2023-02-09T06:58:29.842Z,5.09
2023-02-09T06:59:29.872Z,5.50
2023-02-09T07:01:29.921Z,4.30
2023-02-09T07:02:29.790Z,4.00
2023-02-09T07:03:29.816Z,4.00
2023-02-09T07:04:29.706Z,4.30
2023-02-09T07:05:29.744Z,4.69
2023-02-09T07:06:29.651Z,3.09
2023-02-09T07:07:29.694Z,4.69
2023-02-09T07:08:29.606Z,4.09
2023-02-09T07:09:29.750Z,5.30
2023-02-09T07:10:29.584Z,3.09
2023-02-09T07:11:36.165Z,5.50
2023-02-09T07:12:38.019Z,4.19
2023-02-09T07:13:37.062Z,3.20
2023-02-09T07:14:37.144Z,4.59
2023-02-09T07:15:37.034Z,4.19
2023-02-09T07:16:37.068Z,4.30
2023-02-09T07:17:36.961Z,3.79
2023-02-09T07:18:37.016Z,5.30
2023-02-09T07:19:36.906Z,3.50
2023-02-09T07:20:36.958Z,3.79
2023-02-09T07:21:36.844Z,5.30
2023-02-09T07:22:36.914Z,4.00
2023-02-09T07:23:36.796Z,3.29
2023-02-09T07:24:36.842Z,3.09
2023-02-09T07:25:36.742Z,3.40
2023-02-09T07:26:36.784Z,4.50
2023-02-09T07:27:36.700Z,4.50
2023-02-09T07:28:36.733Z,3.50
2023-02-09T07:29:36.638Z,3.90
2023-02-09T07:31:05.491Z,4.90
2023-02-09T07:32:06.369Z,4.00
2023-02-09T07:33:06.243Z,4.09
2023-02-09T07:34:06.261Z,5.90
2023-02-09T07:35:06.141Z,5.59
2023-02-09T07:36:06.171Z,3.09
2023-02-09T07:37:06.059Z,4.30
2023-02-09T07:38:06.094Z,3.79
2023-02-09T07:39:05.967Z,4.40
2023-02-09T07:40:05.990Z,4.69
2023-02-09T07:41:05.889Z,3.70
2023-02-09T07:42:05.910Z,4.19
2023-02-09T07:43:05.793Z,3.50
2023-02-09T07:44:05.810Z,4.19
2023-02-09T07:45:05.702Z,4.19
2023-02-09T07:46:05.725Z,4.69
2023-02-09T07:47:05.611Z,4.09
2023-02-09T07:48:05.643Z,3.50
2023-02-09T07:49:05.505Z,4.50
2023-02-09T07:50:05.525Z,5.50
2023-02-09T07:51:05.411Z,4.09
2023-02-09T07:52:05.427Z,4.19
2023-02-09T07:53:05.322Z,2.70
2023-02-09T07:54:07.319Z,4.00
2023-02-09T07:55:05.205Z,3.79
2023-02-09T07:56:05.217Z,3.79
2023-02-09T07:57:05.099Z,5.00
2023-02-09T07:58:05.112Z,4.50
2023-02-09T07:59:04.984Z,3.29
2023-02-09T08:00:05.014Z,3.09
2023-02-09T08:01:04.881Z,3.00
2023-02-09T08:02:05.005Z,3.90
2023-02-09T08:03:04.779Z,3.90
2023-02-09T08:04:04.804Z,3.50
2023-02-09T08:05:04.783Z,3.59
2023-02-09T08:06:04.700Z,3.00
2023-02-09T08:07:04.562Z,4.40
2023-02-09T08:08:04.602Z,4.59
2023-02-09T08:09:04.492Z,3.79
2023-02-09T08:10:04.522Z,3.79
2023-02-09T08:11:04.409Z,3.79
2023-02-09T08:12:04.478Z,3.70
2023-02-09T08:13:04.272Z,3.90
2023-02-09T08:14:04.300Z,6.09
2023-02-09T08:15:04.207Z,4.59
2023-02-09T08:16:04.236Z,5.40
2023-02-09T08:17:04.069Z,3.00
2023-02-09T08:18:04.101Z,4.19
2023-02-09T08:19:03.976Z,3.40
2023-02-09T08:20:04.002Z,4.50
2023-02-09T08:21:03.911Z,3.70
2023-02-09T08:22:03.908Z,4.19
2023-02-09T08:23:03.787Z,4.50
2023-02-09T08:24:03.834Z,5.30
2023-02-09T08:25:03.688Z,4.00
2023-02-09T08:26:03.694Z,4.90
2023-02-09T08:27:03.575Z,5.00
2023-02-09T08:28:03.695Z,3.50
2023-02-09T08:29:03.484Z,3.50
2023-02-09T08:30:03.491Z,3.40
2023-02-09T08:31:03.570Z,3.70
2023-02-09T08:32:03.483Z,3.50
2023-02-09T08:33:03.254Z,4.00
2023-02-09T08:34:03.271Z,3.90
2023-02-09T08:35:03.156Z,4.59
2023-02-09T08:36:03.187Z,3.20
2023-02-09T08:37:03.059Z,5.59
2023-02-09T08:38:03.084Z,6.50
2023-02-09T08:39:02.940Z,4.59
2023-02-09T08:40:02.961Z,5.19
2023-02-09T08:41:02.828Z,5.00
2023-02-09T08:42:02.862Z,4.80
2023-02-09T08:43:02.729Z,3.09
2023-02-09T08:44:02.750Z,3.90
2023-02-09T08:45:02.621Z,3.70
2023-02-09T08:46:02.768Z,3.59
2023-02-09T08:47:02.665Z,4.90
2023-02-09T08:48:02.529Z,6.00
2023-02-09T08:49:02.406Z,3.29
2023-02-09T08:50:02.417Z,6.69
2023-02-09T08:51:02.289Z,5.19
2023-02-09T08:52:02.331Z,4.80
2023-02-09T08:53:02.205Z,3.20
2023-02-09T08:54:02.241Z,4.80
2023-02-09T08:55:02.089Z,3.90
2023-02-09T08:56:02.126Z,4.40
2023-02-09T08:57:01.996Z,9.39
2023-02-09T08:58:02.085Z,6.59
2023-02-09T08:59:01.896Z,4.40
2023-02-09T09:00:01.912Z,4.90
2023-02-09T09:01:01.846Z,4.40
2023-02-09T09:02:01.818Z,4.40
2023-02-09T09:03:01.689Z,6.19
2023-02-09T09:04:01.802Z,4.50
2023-02-09T09:05:01.577Z,3.79
2023-02-09T09:06:01.593Z,4.40
2023-02-09T09:07:01.476Z,2.59
2023-02-09T09:08:01.491Z,3.00
2023-02-09T09:09:01.370Z,4.90
2023-02-09T09:10:01.423Z,5.59
2023-02-09T09:11:01.259Z,3.00
2023-02-09T09:12:01.279Z,8.89
2023-02-09T09:13:01.168Z,3.50
2023-02-09T09:14:01.169Z,3.79
2023-02-09T09:15:01.046Z,3.90
2023-02-09T09:16:02.541Z,5.30
2023-02-09T09:17:01.014Z,10.50
2023-02-09T09:18:00.981Z,5.19
2023-02-09T09:19:00.858Z,6.09
2023-02-09T09:20:00.860Z,8.10
2023-02-09T09:21:00.716Z,4.90
2023-02-09T09:22:00.738Z,3.20
2023-02-09T09:23:00.608Z,6.30
2023-02-09T09:24:00.630Z,4.90
2023-02-09T09:25:00.488Z,5.00
2023-02-09T09:26:00.506Z,3.79
2023-02-09T09:27:00.376Z,5.00
2023-02-09T09:28:00.425Z,9.89
2023-02-09T09:29:00.281Z,4.30
2023-02-09T09:30:00.297Z,5.50
2023-02-09T09:31:00.205Z,11.69
2023-02-09T09:32:00.262Z,4.19
2023-02-09T09:33:00.167Z,3.90
2023-02-09T09:34:00.071Z,4.90
2023-02-09T09:34:59.943Z,6.59
2023-02-09T09:35:59.953Z,3.59
2023-02-09T09:36:59.837Z,3.29
2023-02-09T09:37:59.850Z,4.40
2023-02-09T09:38:59.719Z,5.30
2023-02-09T09:40:00.760Z,3.79
2023-02-09T09:40:59.686Z,7.80
2023-02-09T09:41:59.554Z,4.00
2023-02-09T09:42:59.589Z,5.30
2023-02-09T09:43:59.447Z,5.40
2023-02-09T09:44:59.443Z,4.00
2023-02-09T09:45:59.440Z,4.50
2023-02-09T09:46:59.328Z,5.09
2023-02-09T09:47:59.262Z,4.59
2023-02-09T09:48:59.226Z,5.30
2023-02-09T09:49:59.101Z,5.80
2023-02-09T09:50:59.141Z,7.30
2023-02-09T09:51:58.994Z,4.40
2023-02-09T09:52:59.019Z,7.19
2023-02-09T09:53:58.891Z,8.19
2023-02-09T09:54:58.909Z,4.59
2023-02-09T09:55:58.776Z,5.50
2023-02-09T09:56:58.810Z,6.69
2023-02-09T09:57:58.664Z,8.00
2023-02-09T09:58:58.708Z,5.69
2023-02-09T09:59:58.558Z,9.60
2023-02-09T10:00:58.588Z,4.40
2023-02-09T10:01:58.443Z,5.00
2023-02-09T10:02:58.482Z,9.50
2023-02-09T10:03:58.337Z,5.80
2023-02-09T10:04:58.382Z,4.90
2023-02-09T10:05:58.222Z,4.59
2023-02-09T10:06:58.242Z,4.90
2023-02-09T10:07:58.104Z,6.19
2023-02-09T10:08:58.122Z,4.00
2023-02-09T10:09:57.983Z,5.80
2023-02-09T10:10:58.017Z,7.30
2023-02-09T10:11:57.865Z,5.00
2023-02-09T10:12:57.879Z,4.30
2023-02-09T10:13:57.750Z,7.19
2023-02-09T10:14:57.781Z,6.59
2023-02-09T10:15:57.629Z,5.59
2023-02-09T10:16:57.703Z,5.69
2023-02-09T10:17:57.510Z,7.19
2023-02-09T10:18:57.517Z,4.09
2023-02-09T10:19:57.405Z,3.90
2023-02-09T10:20:57.404Z,3.90
2023-02-09T10:21:57.270Z,5.09
2023-02-09T10:22:57.276Z,5.80
2023-02-09T10:23:57.137Z,4.69
2023-02-09T10:24:57.240Z,5.69
2023-02-09T10:25:57.018Z,4.90
2023-02-09T10:26:57.043Z,4.40
2023-02-09T10:27:56.979Z,5.80
2023-02-09T10:28:56.943Z,4.19
2023-02-09T10:29:56.801Z,6.59
2023-02-09T10:30:56.974Z,5.59
2023-02-09T10:31:56.824Z,6.90
2023-02-09T10:32:56.706Z,5.50
2023-02-09T10:33:56.558Z,4.00
2023-02-09T10:34:56.562Z,6.80
2023-02-09T10:35:56.430Z,4.80
2023-02-09T10:36:56.441Z,6.80
2023-02-09T10:37:56.311Z,5.90
2023-02-09T10:38:56.319Z,7.40
2023-02-09T10:39:56.357Z,6.09
2023-02-09T10:40:56.140Z,7.09
2023-02-09T10:41:56.151Z,7.80
2023-02-09T10:42:56.025Z,6.19
2023-02-09T10:43:56.031Z,8.69
2023-02-09T10:44:55.899Z,5.69
2023-02-09T10:45:55.924Z,4.30
2023-02-09T10:46:55.781Z,6.69
2023-02-09T10:47:55.800Z,4.40
2023-02-09T10:48:55.661Z,5.50
2023-02-09T10:49:55.671Z,5.09
2023-02-09T10:50:55.548Z,5.69
2023-02-09T10:51:55.564Z,4.80
2023-02-09T10:52:55.448Z,5.30
2023-02-09T10:53:55.439Z,4.90
2023-02-09T10:54:55.323Z,5.30
2023-02-09T10:55:55.347Z,5.30
2023-02-09T10:56:55.199Z,9.50
2023-02-09T10:57:55.221Z,8.00
2023-02-09T10:58:55.091Z,6.00
2023-02-09T10:59:55.109Z,3.90
2023-02-09T11:00:54.977Z,4.69
2023-02-09T11:01:55.069Z,5.90
2023-02-09T11:02:54.846Z,5.30
2023-02-09T11:03:54.931Z,6.40
2023-02-09T11:04:54.740Z,6.09
2023-02-09T11:05:54.752Z,8.19
2023-02-09T11:06:54.614Z,5.00
2023-02-09T11:07:54.631Z,5.19
2023-02-09T11:08:54.496Z,6.40
2023-02-09T11:09:54.502Z,5.50
2023-02-09T11:10:54.397Z,4.90
2023-02-09T11:11:54.410Z,6.19
2023-02-09T11:12:54.275Z,4.69
2023-02-09T11:13:54.309Z,6.19
2023-02-09T11:14:54.170Z,6.50
2023-02-09T11:15:54.284Z,8.00
2023-02-09T11:16:54.030Z,5.19
2023-02-09T11:17:54.041Z,5.19
2023-02-09T11:18:53.909Z,6.40
2023-02-09T11:19:53.918Z,4.40
2023-02-09T11:20:53.788Z,6.00
2023-02-09T11:21:53.807Z,4.09
2023-02-09T11:22:53.674Z,6.80
2023-02-09T11:23:53.698Z,7.40
2023-02-09T11:24:53.567Z,3.29
2023-02-09T11:25:53.606Z,5.30
2023-02-09T11:26:53.451Z,6.09
2023-02-09T11:27:53.482Z,9.10
2023-02-09T11:28:53.333Z,3.59
2023-02-09T11:29:53.359Z,4.80
2023-02-09T11:30:53.479Z,6.69
2023-02-09T11:31:53.258Z,5.30
2023-02-09T11:32:53.122Z,10.19
2023-02-09T11:33:53.147Z,4.80
2023-02-09T11:34:53.019Z,9.00
2023-02-09T11:35:53.034Z,5.40
2023-02-09T11:36:52.923Z,6.69
2023-02-09T11:37:52.940Z,6.09
2023-02-09T11:38:52.814Z,6.59
2023-02-09T11:39:52.861Z,8.69
2023-02-09T11:40:52.697Z,10.89
2023-02-09T11:41:52.723Z,7.30
2023-02-09T11:42:52.581Z,9.60
2023-02-09T11:43:52.603Z,6.80
2023-02-09T11:44:52.483Z,6.30
2023-02-09T11:45:52.500Z,12.89
2023-02-09T11:46:52.391Z,8.69
2023-02-09T11:47:52.399Z,6.90
2023-02-09T11:48:52.273Z,6.19
2023-02-09T11:49:52.292Z,6.69
2023-02-09T11:50:52.165Z,5.09
2023-02-09T11:51:52.196Z,7.50
2023-02-09T11:52:52.070Z,5.40
2023-02-09T11:53:52.089Z,7.80
2023-02-09T11:54:51.963Z,7.50
2023-02-09T11:55:51.979Z,6.19
2023-02-09T11:56:51.847Z,5.00
2023-02-09T11:57:51.875Z,6.00
2023-02-09T11:58:51.747Z,8.39
2023-02-09T11:59:51.771Z,7.59
2023-02-09T12:00:57.969Z,6.40
2023-02-09T12:01:51.663Z,4.90
2023-02-09T12:02:51.791Z,6.09
2023-02-09T12:03:51.608Z,8.19
2023-02-09T12:04:51.429Z,7.19
2023-02-09T12:05:51.456Z,6.19
2023-02-09T12:06:51.392Z,7.00
2023-02-09T12:07:51.366Z,8.69
2023-02-09T12:08:51.231Z,7.50
2023-02-09T12:09:51.245Z,5.90
2023-02-09T12:10:51.131Z,8.19
2023-02-09T12:11:51.148Z,7.80
2023-02-09T12:12:51.015Z,6.30
2023-02-09T12:13:51.059Z,7.09
2023-02-09T12:14:50.913Z,7.50
2023-02-09T12:15:50.985Z,10.89
2023-02-09T12:16:50.811Z,4.50
2023-02-09T12:17:50.821Z,5.90
2023-02-09T12:18:50.692Z,8.19
2023-02-09T12:19:50.730Z,5.80
2023-02-09T12:20:50.584Z,5.09
2023-02-09T12:21:50.619Z,4.69
2023-02-09T12:22:50.477Z,4.90
2023-02-09T12:23:50.500Z,7.19
2023-02-09T12:24:50.401Z,5.30
2023-02-09T12:25:51.544Z,4.30
2023-02-09T12:26:50.276Z,6.59
2023-02-09T12:27:50.313Z,4.90
2023-02-09T12:28:50.186Z,6.30
2023-02-09T12:29:50.206Z,4.90
2023-02-09T12:30:50.164Z,6.09
2023-02-09T12:31:50.181Z,5.40
2023-02-09T12:32:49.983Z,6.50
2023-02-09T12:33:50.008Z,5.40
2023-02-09T12:34:50.018Z,7.40
2023-02-09T12:35:49.904Z,7.00
2023-02-09T12:36:49.783Z,5.40
2023-02-09T12:37:49.805Z,5.90
2023-02-09T12:38:52.335Z,4.80
2023-02-09T12:39:49.684Z,5.59
2023-02-09T12:40:49.572Z,5.90
2023-02-09T12:41:49.592Z,6.09
2023-02-09T12:42:49.473Z,6.30
2023-02-09T12:43:49.495Z,7.59
2023-02-09T12:44:49.383Z,6.30
2023-02-09T12:45:49.745Z,6.59
2023-02-09T12:46:49.268Z,6.00
2023-02-09T12:47:49.295Z,5.00
2023-02-09T12:48:49.172Z,4.30
2023-02-09T12:49:49.198Z,8.19
2023-02-09T12:50:49.074Z,12.69
2023-02-09T12:51:49.095Z,5.09
2023-02-09T12:52:48.969Z,6.90
2023-02-09T12:53:49.005Z,5.69
2023-02-09T12:54:48.862Z,11.00
2023-02-09T12:55:49.000Z,7.19
2023-02-09T12:56:48.764Z,4.90
2023-02-09T12:57:48.783Z,6.09
2023-02-09T12:58:48.660Z,6.09
2023-02-09T12:59:48.694Z,6.40
2023-02-09T13:00:48.575Z,6.00
2023-02-09T13:01:48.603Z,8.19
2023-02-09T13:02:48.477Z,11.50
2023-02-09T13:03:48.600Z,12.89
2023-02-09T13:04:48.380Z,12.00
2023-02-09T13:05:48.756Z,10.10
2023-02-09T13:06:48.275Z,10.19
2023-02-09T13:07:48.292Z,12.69
2023-02-09T13:08:48.159Z,10.00
2023-02-09T13:09:48.185Z,8.39
2023-02-09T13:10:48.055Z,10.80
2023-02-09T13:11:48.089Z,9.80
2023-02-09T13:12:47.955Z,7.50
2023-02-09T13:13:47.982Z,7.30
2023-02-09T13:14:47.858Z,6.69
2023-02-09T13:15:48.151Z,9.89
2023-02-09T13:16:47.812Z,6.90
2023-02-09T13:17:47.776Z,7.90
2023-02-09T13:18:47.651Z,7.40
2023-02-09T13:19:48.360Z,5.09
2023-02-09T13:20:47.550Z,9.19
2023-02-09T13:21:47.575Z,10.10
2023-02-09T13:22:47.458Z,7.69
2023-02-09T13:23:47.470Z,7.80
2023-02-09T13:24:47.346Z,9.00
2023-02-09T13:25:47.789Z,5.59
2023-02-09T13:26:47.221Z,9.50
2023-02-09T13:27:47.245Z,8.30
2023-02-09T13:28:47.103Z,6.90
2023-02-09T13:29:47.137Z,6.30
2023-02-09T13:30:47.001Z,9.19
2023-02-09T13:31:47.143Z,8.00
2023-02-09T13:32:46.893Z,7.90
2023-02-09T13:33:46.985Z,6.90
2023-02-09T13:34:46.785Z,6.80
2023-02-09T13:35:47.220Z,9.00
2023-02-09T13:36:46.687Z,8.19
2023-02-09T13:37:46.699Z,7.40
2023-02-09T13:38:46.566Z,10.60
2023-02-09T13:39:46.576Z,6.80
2023-02-09T13:40:46.462Z,7.50
2023-02-09T13:41:46.609Z,4.50
2023-02-09T13:42:46.360Z,7.00
2023-02-09T13:43:46.395Z,6.19
2023-02-09T13:44:46.248Z,10.69
2023-02-09T13:45:46.738Z,5.90
2023-02-09T13:46:46.161Z,4.80
2023-02-09T13:47:46.173Z,9.30
2023-02-09T13:48:46.043Z,5.09
2023-02-09T13:49:46.072Z,7.80
2023-02-09T13:50:45.935Z,5.69
2023-02-09T13:51:45.950Z,8.19
2023-02-09T13:52:45.829Z,6.09
2023-02-09T13:53:45.859Z,7.00
2023-02-09T13:54:45.717Z,6.80
2023-02-09T13:55:46.141Z,8.00
2023-02-09T13:56:45.603Z,4.40
2023-02-09T13:57:45.632Z,8.30
2023-02-09T13:58:45.514Z,8.69
2023-02-09T13:59:45.511Z,8.19
2023-02-09T14:00:45.402Z,7.90
2023-02-09T14:01:45.411Z,7.50
2023-02-09T14:02:45.316Z,9.19
2023-02-09T14:03:57.338Z,7.90
2023-02-09T14:04:45.169Z,11.39
2023-02-09T14:05:45.647Z,9.39
2023-02-09T14:06:45.060Z,9.80
2023-02-09T14:07:45.080Z,12.89
2023-02-09T14:08:44.951Z,11.69
2023-02-09T14:09:44.960Z,12.60
2023-02-09T14:10:44.838Z,8.00
2023-02-09T14:11:44.899Z,9.10
2023-02-09T14:12:44.736Z,12.50
2023-02-09T14:13:44.839Z,11.10
2023-02-09T14:14:44.663Z,11.19
2023-02-09T14:15:45.032Z,10.60
2023-02-09T14:16:52.880Z,10.39
2023-02-09T14:17:44.608Z,7.90
2023-02-09T14:18:44.405Z,9.30
2023-02-09T14:19:44.629Z,7.59
2023-02-09T14:20:44.289Z,6.90
2023-02-09T14:21:44.312Z,10.19
2023-02-09T14:22:44.183Z,8.89
2023-02-09T14:23:44.225Z,11.39
2023-02-09T14:24:44.092Z,7.00
2023-02-09T14:25:44.535Z,8.39
2023-02-09T14:26:43.976Z,8.80
2023-02-09T14:27:44.024Z,7.30
2023-02-09T14:28:43.881Z,8.60
2023-02-09T14:29:43.887Z,7.30
2023-02-09T14:30:43.803Z,8.60
2023-02-09T14:31:43.797Z,7.09
2023-02-09T14:32:43.667Z,5.09
2023-02-09T14:33:43.722Z,7.09
2023-02-09T14:34:43.570Z,5.69
2023-02-09T14:35:43.913Z,9.60
2023-02-09T14:36:43.455Z,8.89
2023-02-09T14:37:43.481Z,6.69
2023-02-09T14:38:43.354Z,8.19
2023-02-09T14:39:43.381Z,7.40
2023-02-09T14:40:43.256Z,8.60
2023-02-09T14:41:43.283Z,6.09
2023-02-09T14:42:43.172Z,10.39
2023-02-09T14:43:43.187Z,7.69
2023-02-09T14:44:43.050Z,7.80
2023-02-09T14:45:43.321Z,7.90
2023-02-09T14:46:45.159Z,6.69
2023-02-09T14:47:42.980Z,6.69
2023-02-09T14:48:42.848Z,6.09
2023-02-09T14:49:42.905Z,5.00
2023-02-09T14:50:42.756Z,9.00
2023-02-09T14:51:42.783Z,7.09
2023-02-09T14:52:46.806Z,8.39
2023-02-09T14:53:42.687Z,7.40
2023-02-09T14:54:42.562Z,6.00
2023-02-09T14:55:42.594Z,9.00
2023-02-09T14:56:42.466Z,5.90
2023-02-09T14:58:21.269Z,8.80
2023-02-09T14:59:22.235Z,5.90
2023-02-09T15:00:22.110Z,8.39
2023-02-09T15:01:22.180Z,10.50
2023-02-09T15:02:22.113Z,7.19
2023-02-09T15:03:22.044Z,5.80
2023-02-09T15:04:21.912Z,6.59
2023-02-09T15:05:21.955Z,6.69
2023-02-09T15:06:21.830Z,7.00
2023-02-09T15:07:21.861Z,10.69
2023-02-09T15:08:21.727Z,7.59
2023-02-09T15:09:21.909Z,8.39
2023-02-09T15:10:21.640Z,9.80
2023-02-09T15:11:21.670Z,10.50
2023-02-09T15:12:21.534Z,7.80
2023-02-09T15:13:21.552Z,6.59
2023-02-09T15:14:21.432Z,6.69
2023-02-09T15:15:21.462Z,16.50
2023-02-09T15:16:21.440Z,7.69
2023-02-09T15:17:21.346Z,7.90
2023-02-09T15:18:21.282Z,9.00
2023-02-09T15:19:21.262Z,9.00
2023-02-09T15:20:21.138Z,7.30
2023-02-09T15:21:21.170Z,5.40
2023-02-09T15:22:21.050Z,5.59
2023-02-09T15:23:21.059Z,7.80
2023-02-09T15:24:20.936Z,7.40
2023-02-09T15:25:20.953Z,6.50
2023-02-09T15:26:20.828Z,6.30
2023-02-09T15:27:20.857Z,6.30
2023-02-09T15:28:20.739Z,7.59
2023-02-09T15:29:20.755Z,7.19
2023-02-09T15:30:20.625Z,6.00
2023-02-09T15:31:20.694Z,11.60
2023-02-09T15:32:20.520Z,25.10
2023-02-09T15:33:20.558Z,41.50
2023-02-09T15:34:20.411Z,25.10
2023-02-09T15:35:20.431Z,21.00
2023-02-09T15:36:20.318Z,27.89
2023-02-09T15:37:20.479Z,21.70
2023-02-09T15:38:20.188Z,16.60
2023-02-09T15:39:20.213Z,14.89
2023-02-09T15:40:20.090Z,18.79
2023-02-09T15:41:20.119Z,19.60
2023-02-09T15:42:19.989Z,16.20
2023-02-09T15:43:20.020Z,16.89
2023-02-09T15:44:19.890Z,14.89
2023-02-09T15:45:19.923Z,14.19
2023-02-09T15:46:19.826Z,13.89
2023-02-09T15:47:20.813Z,12.30
2023-02-09T15:48:19.764Z,10.60
2023-02-09T15:49:19.636Z,19.39
2023-02-09T15:50:19.693Z,10.50
2023-02-09T15:51:19.546Z,9.69
2023-02-09T15:52:19.616Z,16.79
2023-02-09T15:53:19.433Z,9.69
2023-02-09T15:54:19.489Z,9.50
2023-02-09T15:55:19.355Z,11.10
2023-02-09T15:56:19.360Z,11.39
2023-02-09T15:57:19.237Z,13.10
2023-02-09T15:58:19.255Z,13.19
2023-02-09T15:59:19.132Z,8.30
2023-02-09T16:00:19.176Z,9.00
2023-02-09T16:01:19.099Z,9.60
2023-02-09T16:02:19.052Z,6.90
2023-02-09T16:03:18.920Z,7.00
2023-02-09T16:04:18.950Z,8.80
2023-02-09T16:05:18.826Z,5.59
2023-02-09T16:06:18.840Z,9.39
2023-02-09T16:07:18.718Z,5.90
2023-02-09T16:08:18.807Z,7.30
2023-02-09T16:09:18.611Z,8.89
2023-02-09T16:10:18.629Z,10.30
2023-02-09T16:11:18.528Z,9.19
2023-02-09T16:12:18.535Z,7.19
2023-02-09T16:13:18.414Z,6.40
2023-02-09T16:14:18.463Z,7.19
2023-02-09T16:15:18.308Z,9.69
2023-02-09T16:16:18.451Z,8.50
2023-02-09T16:17:18.245Z,6.40
2023-02-09T16:18:18.237Z,9.00
2023-02-09T16:19:18.121Z,8.39
2023-02-09T16:22:18.037Z,6.90
2023-02-09T16:23:21.002Z,7.80
2023-02-09T16:24:17.933Z,6.09
2023-02-09T16:25:17.827Z,7.69
2023-02-09T16:26:17.828Z,5.80
2023-02-09T16:29:17.714Z,8.00
2023-02-09T16:30:17.552Z,10.39
2023-02-09T16:31:17.672Z,8.00
2023-02-09T16:32:17.450Z,9.30
2023-02-09T16:33:17.478Z,5.90
2023-02-09T16:34:17.330Z,6.09
2023-02-09T16:35:17.588Z,6.50
2023-02-09T16:36:17.235Z,7.00
2023-02-09T16:37:17.259Z,7.09
2023-02-09T16:38:17.127Z,8.10
2023-02-09T16:39:17.167Z,9.80
2023-02-09T16:40:17.014Z,7.80
2023-02-09T16:41:17.059Z,5.69
2023-02-09T16:42:16.909Z,9.69
2023-02-09T16:43:16.941Z,5.59
2023-02-09T16:44:16.808Z,7.09
2023-02-09T16:45:08.109Z,7.50
2023-02-09T16:46:09.549Z,5.50
2023-02-09T16:47:09.015Z,5.90
2023-02-09T16:48:09.072Z,4.59
2023-02-09T16:49:08.989Z,6.50
2023-02-09T16:50:09.048Z,8.50
2023-02-09T16:51:08.958Z,5.19
2023-02-09T16:52:09.008Z,5.69
2023-02-09T16:53:08.930Z,7.30
2023-02-09T16:54:09.007Z,6.40
2023-02-09T16:55:08.907Z,5.19
2023-02-09T16:56:08.961Z,6.00
2023-02-09T16:57:08.858Z,5.50
2023-02-09T16:58:08.913Z,6.00
2023-02-09T16:59:08.828Z,5.90
2023-02-09T17:00:08.882Z,4.50
2023-02-09T17:01:08.846Z,6.09
2023-02-09T17:02:09.027Z,6.90
2023-02-09T17:03:08.764Z,5.30
2023-02-09T17:04:08.814Z,10.19
2023-02-09T17:05:08.718Z,6.69
2023-02-09T17:06:08.784Z,6.50
2023-02-09T17:07:08.680Z,7.19
2023-02-09T17:08:08.741Z,7.19
2023-02-09T17:09:08.655Z,6.40
2023-02-09T17:10:08.698Z,6.90
2023-02-09T17:11:08.610Z,6.50
2023-02-09T17:12:08.667Z,9.80
2023-02-09T17:13:08.575Z,6.69
2023-02-09T17:14:08.665Z,5.59
2023-02-09T17:15:17.672Z,5.09
2023-02-09T17:16:08.621Z,9.50
2023-02-09T17:17:08.506Z,7.69
2023-02-09T17:18:08.631Z,9.39
2023-02-09T17:19:08.479Z,11.19
2023-02-09T17:20:08.536Z,11.50
2023-02-09T17:21:08.438Z,10.80
2023-02-09T17:22:08.493Z,9.60
2023-02-09T17:23:08.399Z,6.69
2023-02-09T17:24:08.444Z,5.90
2023-02-09T17:25:08.401Z,6.50
2023-02-09T17:26:08.431Z,7.80
2023-02-09T17:27:08.316Z,8.10
2023-02-09T17:28:08.432Z,6.90
2023-02-09T17:29:08.290Z,6.19
2023-02-09T17:30:08.325Z,8.39
2023-02-09T17:31:08.232Z,6.90
2023-02-09T17:32:08.278Z,7.40
2023-02-09T17:33:08.186Z,8.60
2023-02-09T17:34:08.238Z,7.59
